Terminal Aerodrome Forecast
Issued by NWS

Home | Current Version | Previous Version | Text Only | Print | Product List | Glossary On
Versions: 1 2 3 4 5 6 7 8 9 10 11 12 13 14 15 16 17 18 19 20 21 22
057
FTUS44 KTSA 232320
TAFMLC
TAF
KMLC 232320Z 2400/2424 VRB04KT 5SM -TSRA OVC004CB
      TEMPO 2400/2404 2SM -TSRA BKN007CB
     FM240400 VRB03KT P6SM VCTS OVC003CB
      TEMPO 2404/2408 2SM -TSRA BR OVC005CB
     FM240800 VRB03KT 3SM -DZ BR BKN004
      TEMPO 2409/2413 1SM -DZ BR OVC003
     FM241500 19007KT 4SM -RA BR OVC006
      TEMPO 2417/2421 2SM -TSRA BR OVC015CB
     FM242100 24012G22KT P6SM BKN025=

USA.gov is the U.S. government's official web portal to all federal, state and local government web resources and services.